Currie, Australia
Current Conditions -  °F | °C
As of 9:00 AM on Monday 22 Dec 2014 (Local Time) from YMAV Reporting Station
Overcast Overcast  
Wind Chill: 66°   Ceiling: 1300
Heat Index: 66°   Visibility: 6mi
Dew Point: 59°   Wind: 10mph
Humidity: 78%   Direction: 130°SE
Pressure: 29.91"   Gusts: NA
Location:  39.93°S, 143.85°E
Report Text: YMAV 212200Z AUTO 13009KT 9999 // OVC013 19/15 Q1013
Loading
Personal Weather Stations






























Interactive Weather Map New forecast layout! Learn more

10-Day Weather Forecast

Advertisements
Track Severe Weather on mobile